Time;durP1;ratioP1;P1;durP2;ratioP2;P2;SDS_P1;SDS_P2;PMS_P1;PMS_P2;Temp;Humidity;BMP_temperature;BMP_pressure;BME280_temperature;BME280_humidity;BME280_pressure;Samples;Min_cycle;Max_cycle;Signal;HPM_P1;HPM_P2
2022/10/11 00:01:00;;;;;;;4.82;3.63;;;12.50;99.90;;;;;;4961245;29;20416;-83
2022/10/11 00:03:26;;;;;;;4.00;3.47;;;12.60;99.90;;;;;;4962398;28;20031;-84
2022/10/11 00:05:53;;;;;;;6.50;4.00;;;12.50;99.90;;;;;;4963021;28;20031;-84
2022/10/11 00:08:18;;;;;;;3.05;2.85;;;12.60;99.90;;;;;;4969237;28;20031;-83
2022/10/11 00:10:44;;;;;;;4.65;3.35;;;12.60;99.90;;;;;;4987420;28;20034;-84
2022/10/11 00:13:10;;;;;;;4.82;3.20;;;12.60;99.90;;;;;;4991315;28;20059;-83
2022/10/11 00:15:38;;;;;;;3.42;2.83;;;12.60;99.90;;;;;;4991124;28;20027;-83
2022/10/11 00:18:04;;;;;;;6.85;3.60;;;12.60;99.90;;;;;;4991796;28;20409;-82
2022/10/11 00:20:29;;;;;;;6.88;3.85;;;12.60;99.90;;;;;;4982994;28;20145;-83
2022/10/11 00:22:55;;;;;;;6.63;4.03;;;12.60;99.90;;;;;;4972058;28;20026;-83
2022/10/11 00:25:20;;;;;;;5.45;3.80;;;12.60;99.90;;;;;;5001134;28;20062;-83
2022/10/11 00:27:46;;;;;;;7.15;4.00;;;12.60;99.90;;;;;;5008754;28;20210;-84
2022/10/11 00:30:12;;;;;;;4.40;3.10;;;12.60;99.90;;;;;;5012604;28;20026;-83
2022/10/11 00:32:38;;;;;;;5.18;3.40;;;12.60;99.90;;;;;;5007005;28;20514;-84
2022/10/11 00:35:05;;;;;;;7.07;3.67;;;12.70;99.90;;;;;;4986573;28;20129;-84
2022/10/11 00:37:33;;;;;;;4.15;3.40;;;12.70;99.90;;;;;;4982459;28;20039;-84
2022/10/11 00:39:59;;;;;;;3.85;3.42;;;12.80;99.90;;;;;;4982970;28;20023;-84
2022/10/11 00:42:25;;;;;;;4.72;3.03;;;12.80;99.90;;;;;;4983124;28;20441;-84
2022/10/11 00:44:50;;;;;;;4.50;2.65;;;12.90;99.90;;;;;;4990783;28;20374;-82
2022/10/11 00:47:20;;;;;;;7.93;3.17;;;12.90;99.90;;;;;;5002035;28;20034;-83
2022/10/11 00:49:53;;;;;;;8.90;3.55;;;12.90;99.90;;;;;;4987482;28;20051;-83
2022/10/11 00:52:36;;;;;;;5.47;3.90;;;13.00;99.90;;;;;;4982699;28;20054;-82
2022/10/11 00:55:08;;;;;;;5.80;3.88;;;13.10;99.90;;;;;;4980177;28;20034;-83
2022/10/11 00:57:37;;;;;;;14.77;3.78;;;13.20;99.90;;;;;;4981820;28;20067;-84
2022/10/11 01:00:09;;;;;;;6.95;3.65;;;13.30;99.90;;;;;;4969866;28;20124;-83
2022/10/11 01:02:34;;;;;;;11.27;3.90;;;13.40;99.90;;;;;;4980382;28;20038;-82
2022/10/11 01:05:01;;;;;;;5.10;3.40;;;13.40;99.90;;;;;;4981781;28;20027;-83
2022/10/11 01:07:30;;;;;;;9.13;3.15;;;13.40;99.90;;;;;;4979139;28;20042;-82
2022/10/11 01:09:56;;;;;;;8.57;3.70;;;13.50;99.90;;;;;;4977244;28;20443;-82
2022/10/11 01:12:25;;;;;;;5.78;3.30;;;13.50;99.90;;;;;;4976326;28;20047;-83
2022/10/11 01:15:15;;;;;;;10.20;3.25;;;13.50;99.90;;;;;;4982328;28;20087;-82
2022/10/11 01:17:43;;;;;;;7.70;3.10;;;13.60;99.90;;;;;;4981504;28;20062;-83
2022/10/11 01:20:31;;;;;;;5.68;3.75;;;13.60;99.90;;;;;;4984620;28;20386;-84
2022/10/11 01:23:24;;;;;;;7.55;3.47;;;13.60;99.90;;;;;;4982823;28;20519;-83
2022/10/11 01:26:18;;;;;;;5.10;3.35;;;13.60;99.90;;;;;;4982374;28;20047;-83
2022/10/11 01:29:19;;;;;;;3.30;3.00;;;13.50;99.90;;;;;;4987403;28;20031;-83
2022/10/11 01:31:57;;;;;;;3.15;2.65;;;13.50;99.90;;;;;;4977344;28;20371;-83
2022/10/11 01:34:36;;;;;;;3.95;3.03;;;13.50;99.90;;;;;;4987400;28;20018;-84
2022/10/11 01:37:32;;;;;;;5.45;3.03;;;13.40;99.90;;;;;;5004720;28;20026;-83
2022/10/11 01:40:12;;;;;;;6.95;3.20;;;13.40;99.90;;;;;;4953525;29;20090;-84
2022/10/11 01:42:40;;;;;;;5.55;3.15;;;13.40;99.90;;;;;;4980967;28;20020;-84
2022/10/11 01:45:13;;;;;;;4.68;3.03;;;13.40;99.90;;;;;;4993313;28;20022;-83
2022/10/11 01:47:38;;;;;;;5.47;2.83;;;13.50;99.90;;;;;;5005836;28;20073;-83
2022/10/11 01:50:06;;;;;;;5.22;3.17;;;13.40;99.90;;;;;;5001739;28;20022;-82
2022/10/11 01:52:40;;;;;;;3.92;2.80;;;13.50;99.90;;;;;;4997617;28;20023;-81
2022/10/11 01:55:11;;;;;;;4.82;2.83;;;13.50;99.90;;;;;;4984046;28;20027;-82
2022/10/11 01:57:46;;;;;;;3.55;2.60;;;13.50;99.90;;;;;;4984766;28;20470;-82
2022/10/11 02:00:23;;;;;;;7.68;3.15;;;13.50;99.90;;;;;;4990585;28;20042;-83
2022/10/11 02:03:14;;;;;;;6.97;3.10;;;13.50;99.90;;;;;;4991770;28;20034;-82
2022/10/11 02:06:05;;;;;;;4.57;2.80;;;13.50;99.90;;;;;;4963970;28;20043;-83
2022/10/11 02:08:55;;;;;;;5.40;3.25;;;13.50;99.90;;;;;;4981996;28;20042;-82
2022/10/11 02:11:27;;;;;;;3.67;2.33;;;13.50;99.90;;;;;;5003841;28;20427;-83
2022/10/11 02:14:11;;;;;;;4.95;3.47;;;13.50;99.90;;;;;;5002513;28;20033;-83
2022/10/11 02:17:12;;;;;;;4.32;2.65;;;13.50;99.90;;;;;;4986434;28;20027;-83
2022/10/11 02:19:43;;;;;;;2.55;2.20;;;13.50;99.90;;;;;;4998357;28;20031;-82
2022/10/11 02:22:23;;;;;;;3.88;2.80;;;13.50;99.90;;;;;;5004169;28;20022;-84
2022/10/11 02:24:52;;;;;;;4.85;2.90;;;13.40;99.90;;;;;;4996166;28;20023;-83
2022/10/11 02:27:21;;;;;;;5.80;3.55;;;13.40;99.90;;;;;;4967466;28;20343;-82
2022/10/11 02:29:51;;;;;;;5.10;3.40;;;13.40;99.90;;;;;;4967493;28;20035;-82
2022/10/11 02:32:19;;;;;;;3.67;2.97;;;13.40;99.90;;;;;;4988835;28;20099;-83
2022/10/11 02:34:53;;;;;;;3.90;3.15;;;13.30;99.90;;;;;;4999162;28;20055;-83
2022/10/11 02:37:24;;;;;;;3.00;2.60;;;13.30;99.90;;;;;;4978630;28;20039;-83
2022/10/11 02:39:55;;;;;;;3.87;2.50;;;13.30;99.90;;;;;;4979009;28;20055;-84
2022/10/11 02:42:31;;;;;;;2.85;2.60;;;13.30;99.90;;;;;;4979897;28;20028;-84
2022/10/11 02:45:02;;;;;;;3.80;2.63;;;13.30;99.90;;;;;;4991630;28;20050;-83
2022/10/11 02:47:30;;;;;;;2.40;2.13;;;13.20;99.90;;;;;;4997232;28;20039;-82
2022/10/11 02:49:58;;;;;;;2.65;2.40;;;13.20;99.90;;;;;;5001024;28;20515;-82
2022/10/11 02:52:23;;;;;;;2.38;2.20;;;13.20;99.90;;;;;;5016652;28;20030;-82
2022/10/11 02:54:49;;;;;;;2.95;2.10;;;13.20;99.90;;;;;;5018800;28;20082;-82
2022/10/11 02:57:15;;;;;;;2.78;2.20;;;13.20;99.90;;;;;;5018608;28;20046;-79
2022/10/11 02:59:41;;;;;;;2.60;2.40;;;13.20;99.90;;;;;;5019266;28;20018;-82
2022/10/11 03:02:06;;;;;;;3.25;2.55;;;13.20;99.90;;;;;;5000863;28;20466;-81
2022/10/11 03:04:32;;;;;;;4.10;2.80;;;13.20;99.90;;;;;;5000043;28;20030;-80
2022/10/11 03:06:58;;;;;;;9.48;3.65;;;13.20;99.90;;;;;;4999948;28;20038;-80
2022/10/11 03:09:23;;;;;;;4.15;3.08;;;13.20;99.90;;;;;;4999813;28;20105;-80
2022/10/11 03:11:49;;;;;;;4.22;3.20;;;13.20;99.90;;;;;;5000011;28;20125;-82
2022/10/11 03:14:14;;;;;;;4.65;2.70;;;13.20;99.90;;;;;;4998115;28;20026;-82
2022/10/11 03:16:43;;;;;;;4.25;2.80;;;13.20;99.90;;;;;;4983476;28;20031;-83
2022/10/11 03:19:09;;;;;;;3.15;2.75;;;13.20;99.90;;;;;;4985085;28;20027;-83
2022/10/11 03:21:34;;;;;;;2.58;2.22;;;13.20;99.90;;;;;;5001309;28;20375;-83
2022/10/11 03:24:00;;;;;;;5.43;2.90;;;13.20;99.90;;;;;;4979943;28;20360;-83
2022/10/11 03:26:28;;;;;;;2.30;2.10;;;13.20;99.90;;;;;;4985917;28;20029;-84
2022/10/11 03:28:54;;;;;;;2.47;2.22;;;13.20;99.90;;;;;;4996864;28;20070;-83
2022/10/11 03:31:22;;;;;;;3.65;2.67;;;13.20;99.90;;;;;;4997312;28;20030;-84
2022/10/11 03:33:48;;;;;;;7.95;2.70;;;13.20;99.90;;;;;;4998568;28;20022;-82
2022/10/11 03:36:13;;;;;;;5.38;3.15;;;13.20;99.90;;;;;;4987764;28;20047;-82
2022/10/11 03:38:39;;;;;;;3.80;2.83;;;13.20;99.90;;;;;;4981425;28;20090;-82
2022/10/11 03:41:05;;;;;;;5.00;2.88;;;13.20;99.90;;;;;;4980934;28;20031;-82
2022/10/11 03:43:30;;;;;;;4.72;2.90;;;13.20;99.90;;;;;;4999345;28;20134;-86
2022/10/11 03:45:56;;;;;;;4.63;2.78;;;13.20;99.90;;;;;;5009703;28;20078;-84
2022/10/11 03:48:22;;;;;;;2.80;2.58;;;13.20;99.90;;;;;;4991666;28;20038;-82
2022/10/11 03:50:48;;;;;;;3.28;2.65;;;13.20;99.90;;;;;;4979191;28;20483;-83
2022/10/11 03:53:14;;;;;;;4.40;2.75;;;13.20;99.90;;;;;;4981422;28;20031;-83
2022/10/11 03:55:40;;;;;;;5.25;3.25;;;13.20;99.90;;;;;;4983879;28;20165;-85
2022/10/11 03:58:08;;;;;;;4.65;3.30;;;13.20;99.90;;;;;;4980705;28;20031;-83
2022/10/11 04:00:35;;;;;;;4.18;2.35;;;13.20;99.90;;;;;;4987250;28;20033;-83
2022/10/11 04:03:02;;;;;;;4.80;2.67;;;13.20;99.90;;;;;;4967369;28;20035;-82
2022/10/11 04:05:28;;;;;;;7.40;3.17;;;13.10;99.90;;;;;;4978828;28;20026;-83
2022/10/11 04:07:54;;;;;;;3.03;2.47;;;13.10;99.90;;;;;;5001605;28;20034;-84
2022/10/11 04:10:19;;;;;;;3.35;2.70;;;13.10;99.90;;;;;;4980561;28;20038;-83
2022/10/11 04:12:45;;;;;;;4.80;2.50;;;13.10;99.90;;;;;;4971955;28;20062;-84
2022/10/11 04:15:13;;;;;;;3.08;2.22;;;13.00;99.90;;;;;;4963625;29;20492;-83
2022/10/11 04:17:40;;;;;;;2.70;2.50;;;13.00;99.90;;;;;;4970747;28;20141;-84
2022/10/11 04:20:06;;;;;;;3.03;2.20;;;13.00;99.90;;;;;;4993028;28;20031;-83
2022/10/11 04:22:32;;;;;;;2.78;2.10;;;13.00;99.90;;;;;;5004013;28;20026;-82
2022/10/11 04:24:58;;;;;;;3.25;2.03;;;13.00;99.90;;;;;;4970138;28;20026;-85
2022/10/11 04:27:27;;;;;;;3.58;1.95;;;13.00;99.90;;;;;;4978828;28;20464;-83
2022/10/11 04:29:53;;;;;;;2.10;1.80;;;12.90;99.90;;;;;;4990425;28;20364;-83
2022/10/11 04:32:19;;;;;;;3.35;2.35;;;12.90;99.90;;;;;;4990620;28;20077;-82
2022/10/11 04:34:44;;;;;;;4.30;2.78;;;12.90;99.90;;;;;;4987349;28;20050;-83
2022/10/11 04:37:10;;;;;;;3.80;2.60;;;12.90;99.90;;;;;;4984577;28;20019;-83
2022/10/11 04:39:37;;;;;;;6.20;3.35;;;12.90;99.90;;;;;;4981142;28;20077;-84
2022/10/11 04:42:03;;;;;;;4.55;3.05;;;12.90;99.90;;;;;;4983793;28;20019;-82
2022/10/11 04:44:30;;;;;;;3.97;3.00;;;12.90;99.90;;;;;;4986909;28;20023;-82
2022/10/11 04:46:56;;;;;;;3.83;2.72;;;12.90;99.90;;;;;;4988246;28;20031;-83
2022/10/11 04:49:22;;;;;;;2.65;2.38;;;12.90;99.90;;;;;;4993266;28;20166;-83
2022/10/11 04:51:48;;;;;;;2.40;2.20;;;12.90;99.90;;;;;;4989120;28;20035;-83
2022/10/11 04:54:14;;;;;;;2.78;2.20;;;12.90;99.90;;;;;;4989988;28;20082;-83
2022/10/11 04:56:39;;;;;;;2.75;2.15;;;12.90;99.90;;;;;;4988002;28;20053;-82
2022/10/11 04:59:05;;;;;;;2.88;2.35;;;12.90;99.90;;;;;;4989411;28;20046;-83
2022/10/11 05:01:31;;;;;;;2.90;2.28;;;12.90;99.90;;;;;;4988380;28;20035;-81
2022/10/11 05:03:56;;;;;;;2.30;2.05;;;12.90;99.90;;;;;;4992882;28;20039;-82
2022/10/11 05:06:22;;;;;;;2.13;1.92;;;12.90;99.90;;;;;;4989898;28;20043;-82
2022/10/11 05:08:48;;;;;;;2.58;2.38;;;12.90;99.90;;;;;;4973577;28;20038;-82
2022/10/11 05:11:16;;;;;;;2.20;2.00;;;12.90;99.90;;;;;;4974170;28;20081;-82
2022/10/11 05:13:42;;;;;;;2.85;2.40;;;12.90;99.90;;;;;;4974567;28;20023;-81
2022/10/11 05:16:08;;;;;;;3.00;2.78;;;12.90;99.90;;;;;;4971858;29;20058;-81
2022/10/11 05:18:34;;;;;;;3.83;2.63;;;12.90;99.90;;;;;;4997905;28;20014;-83
2022/10/11 05:21:06;;;;;;;2.95;2.67;;;12.90;99.90;;;;;;5009635;28;20031;-82
2022/10/11 05:23:33;;;;;;;3.40;2.85;;;12.90;99.90;;;;;;5011633;28;20026;-81
2022/10/11 05:25:59;;;;;;;2.47;2.10;;;12.80;99.90;;;;;;5001035;28;20066;-83
2022/10/11 05:28:26;;;;;;;3.10;2.80;;;12.90;99.90;;;;;;4993628;28;20041;-82
2022/10/11 05:30:52;;;;;;;2.65;2.10;;;12.90;99.90;;;;;;4996904;28;20038;-83
2022/10/11 05:33:18;;;;;;;2.47;2.28;;;12.90;99.90;;;;;;4996358;28;20018;-83
2022/10/11 05:35:44;;;;;;;2.88;2.50;;;12.90;99.90;;;;;;5011618;28;20037;-83
2022/10/11 05:38:09;;;;;;;2.75;2.30;;;12.90;99.90;;;;;;4994322;28;20031;-82
2022/10/11 05:40:38;;;;;;;2.60;2.25;;;12.90;99.90;;;;;;4989911;28;20034;-83
2022/10/11 05:43:05;;;;;;;2.88;2.67;;;12.90;99.90;;;;;;4978049;28;20054;-83
2022/10/11 05:45:31;;;;;;;3.88;2.63;;;13.00;99.90;;;;;;4979948;28;20055;-83
2022/10/11 05:47:58;;;;;;;2.25;2.05;;;13.00;99.90;;;;;;4976607;28;20043;-82
2022/10/11 05:50:24;;;;;;;2.67;2.40;;;13.00;99.90;;;;;;4998384;28;20030;-83
2022/10/11 05:52:50;;;;;;;3.25;2.35;;;13.00;99.90;;;;;;4990774;28;20031;-83
2022/10/11 05:55:16;;;;;;;2.17;2.00;;;13.10;99.90;;;;;;4991410;28;20075;-83
2022/10/11 05:57:41;;;;;;;3.15;2.33;;;13.10;99.90;;;;;;4981690;28;20027;-83
2022/10/11 06:00:08;;;;;;;2.67;2.05;;;13.20;99.90;;;;;;4969416;29;20086;-83
2022/10/11 06:02:33;;;;;;;3.00;2.53;;;13.20;99.90;;;;;;4969688;28;20032;-82
2022/10/11 06:04:59;;;;;;;2.80;2.15;;;13.30;99.90;;;;;;4968686;28;20118;-81
2022/10/11 06:07:25;;;;;;;3.20;2.63;;;13.40;99.90;;;;;;4966659;28;20095;-80
2022/10/11 06:09:51;;;;;;;5.57;3.95;;;13.50;99.90;;;;;;4965603;29;20047;-82
2022/10/11 06:12:17;;;;;;;6.95;4.30;;;13.60;99.90;;;;;;4968619;28;20091;-82
2022/10/11 06:14:43;;;;;;;8.82;4.82;;;13.70;99.90;;;;;;4961597;28;20070;-84
2022/10/11 06:17:09;;;;;;;7.57;4.95;;;13.80;99.90;;;;;;4981949;28;20058;-83
2022/10/11 06:19:35;;;;;;;8.43;5.15;;;13.90;99.90;;;;;;5003578;28;20030;-81
2022/10/11 06:22:01;;;;;;;7.78;5.05;;;14.00;99.90;;;;;;5010378;28;20023;-82
2022/10/11 06:24:27;;;;;;;8.57;5.45;;;14.00;99.90;;;;;;5010402;28;20553;-82
2022/10/11 06:26:53;;;;;;;10.65;5.80;;;14.00;99.90;;;;;;5011171;28;20057;-81
2022/10/11 06:29:19;;;;;;;7.38;5.47;;;14.10;99.90;;;;;;5008799;28;20086;-81
2022/10/11 06:31:47;;;;;;;7.05;4.65;;;14.10;99.90;;;;;;5008737;28;20368;-81
2022/10/11 06:34:13;;;;;;;5.55;4.97;;;14.10;99.90;;;;;;5009017;28;20030;-82
2022/10/11 06:36:39;;;;;;;6.57;5.80;;;14.10;99.90;;;;;;4996016;28;20318;-83
2022/10/11 06:39:05;;;;;;;5.40;4.07;;;14.20;99.90;;;;;;4990067;28;20027;-83
2022/10/11 06:41:30;;;;;;;4.68;3.45;;;14.20;99.90;;;;;;4991800;28;20041;-85
2022/10/11 06:43:56;;;;;;;5.60;3.83;;;14.30;99.90;;;;;;4991214;28;20039;-82
2022/10/11 06:46:26;;;;;;;5.63;3.55;;;14.30;99.90;;;;;;4991218;28;20031;-82
2022/10/11 06:48:52;;;;;;;6.70;3.15;;;14.40;99.90;;;;;;4986129;28;20023;-83
2022/10/11 06:51:20;;;;;;;5.55;3.63;;;14.40;99.90;;;;;;4993332;28;20026;-81
2022/10/11 06:53:55;;;;;;;3.45;2.80;;;14.40;99.90;;;;;;4992447;28;20030;-83
2022/10/11 06:56:21;;;;;;;4.47;2.70;;;14.50;99.90;;;;;;4987889;28;20057;-83
2022/10/11 06:58:46;;;;;;;3.65;2.30;;;14.50;99.90;;;;;;4990820;28;20023;-84
2022/10/11 07:01:19;;;;;;;8.57;3.05;;;14.60;99.90;;;;;;4994216;28;20541;-83
2022/10/11 07:03:45;;;;;;;9.88;3.15;;;14.70;99.90;;;;;;4991490;28;20019;-83
2022/10/11 07:06:13;;;;;;;6.78;3.22;;;14.70;99.90;;;;;;4991991;28;20031;-82
2022/10/11 07:08:39;;;;;;;7.75;3.05;;;14.70;99.90;;;;;;4991361;28;20023;-83
2022/10/11 07:11:20;;;;;;;6.70;3.33;;;14.70;99.90;;;;;;4989669;28;20051;-81
2022/10/11 07:13:51;;;;;;;8.38;3.33;;;14.80;99.90;;;;;;4984386;28;20054;-83
2022/10/11 07:16:18;;;;;;;7.57;2.88;;;14.80;99.90;;;;;;4982622;28;20098;-84
2022/10/11 07:18:44;;;;;;;7.88;2.83;;;14.80;99.90;;;;;;4991786;28;20030;-84
2022/10/11 07:21:12;;;;;;;5.10;2.60;;;14.90;99.90;;;;;;5009085;28;20030;-83
2022/10/11 07:23:39;;;;;;;6.97;3.20;;;14.90;99.90;;;;;;5008911;28;20041;-84
2022/10/11 07:26:05;;;;;;;4.95;2.88;;;14.90;99.90;;;;;;4991988;28;20026;-84
2022/10/11 07:28:33;;;;;;;6.97;2.72;;;14.90;99.90;;;;;;5009255;28;20042;-83
2022/10/11 07:31:04;;;;;;;7.65;2.80;;;15.00;99.90;;;;;;5009485;28;20030;-84
2022/10/11 07:33:29;;;;;;;7.53;2.95;;;15.00;99.90;;;;;;4990433;28;20031;-83
2022/10/11 07:36:01;;;;;;;9.38;2.95;;;15.00;99.90;;;;;;4972998;29;20030;-84
2022/10/11 07:38:27;;;;;;;5.70;2.63;;;15.00;99.90;;;;;;4972246;28;20034;-84
2022/10/11 07:40:53;;;;;;;7.53;2.92;;;15.10;99.90;;;;;;4971520;28;20023;-83
2022/10/11 07:43:19;;;;;;;5.05;2.50;;;15.20;99.90;;;;;;4970976;28;20436;-84
2022/10/11 07:45:47;;;;;;;4.30;2.45;;;15.30;99.90;;;;;;4971089;28;20027;-83
2022/10/11 07:48:14;;;;;;;4.43;3.08;;;15.50;99.90;;;;;;4997753;28;20014;-82
2022/10/11 07:50:40;;;;;;;4.07;2.35;;;15.60;99.90;;;;;;4994108;28;20038;-83
2022/10/11 07:53:05;;;;;;;6.93;2.00;;;15.70;99.90;;;;;;4990852;28;20051;-83
2022/10/11 07:55:39;;;;;;;7.13;2.30;;;15.80;99.90;;;;;;4989338;28;20073;-83
2022/10/11 07:58:11;;;;;;;5.03;3.05;;;15.90;99.90;;;;;;4991693;28;20106;-83
2022/10/11 08:00:38;;;;;;;7.47;3.08;;;16.00;99.90;;;;;;4990567;28;20029;-82
2022/10/11 08:03:05;;;;;;;6.55;3.13;;;15.90;99.90;;;;;;4992155;28;20118;-84
2022/10/11 08:05:32;;;;;;;7.10;3.03;;;15.90;99.90;;;;;;4992362;28;20023;-84
2022/10/11 08:07:58;;;;;;;8.73;3.10;;;15.90;99.90;;;;;;4990027;28;20107;-84
2022/10/11 08:10:26;;;;;;;4.80;3.15;;;15.90;99.90;;;;;;4985331;28;20023;-82
2022/10/11 08:12:52;;;;;;;7.20;2.90;;;16.00;99.90;;;;;;4969844;28;20388;-83
2022/10/11 08:15:18;;;;;;;5.90;3.28;;;16.10;99.90;;;;;;4967733;29;20408;-84
2022/10/11 08:17:45;;;;;;;8.68;2.78;;;16.10;99.90;;;;;;4980483;28;20027;-84
2022/10/11 08:20:11;;;;;;;7.63;2.70;;;16.10;99.90;;;;;;4998734;28;20114;-83
2022/10/11 08:22:36;;;;;;;7.55;2.78;;;16.30;99.90;;;;;;4989879;28;20078;-84
2022/10/11 08:25:03;;;;;;;12.05;3.40;;;16.20;99.90;;;;;;4987955;28;20042;-83
2022/10/11 08:27:28;;;;;;;5.20;2.70;;;16.20;99.90;;;;;;4984871;28;20019;-83
2022/10/11 08:29:54;;;;;;;7.90;3.00;;;16.30;99.90;;;;;;4977978;28;20460;-84
2022/10/11 08:32:19;;;;;;;9.70;2.85;;;16.40;99.90;;;;;;4990646;28;20086;-83
2022/10/11 08:34:45;;;;;;;11.20;3.25;;;16.40;99.90;;;;;;4991250;28;20055;-83
2022/10/11 08:37:11;;;;;;;4.72;2.67;;;16.50;99.40;;;;;;4993691;28;20031;-83
2022/10/11 08:39:36;;;;;;;5.30;3.42;;;16.50;99.50;;;;;;4990858;28;20604;-82
2022/10/11 08:42:05;;;;;;;7.78;3.20;;;16.50;99.00;;;;;;4990542;28;20465;-83
2022/10/11 08:44:49;;;;;;;8.70;3.58;;;16.40;99.30;;;;;;4989371;28;20015;-83
2022/10/11 08:47:37;;;;;;;6.90;3.20;;;16.50;99.20;;;;;;4990624;28;20027;-83
2022/10/11 08:50:05;;;;;;;5.15;2.42;;;16.50;99.20;;;;;;5028691;23;20046;-84
2022/10/11 08:52:49;;;;;;;4.55;2.50;;;16.80;99.20;;;;;;5052191;28;20022;-83
2022/10/11 08:55:40;;;;;;;4.30;2.58;;;17.20;98.50;;;;;;5035632;28;20029;-83
2022/10/11 08:58:13;;;;;;;5.68;2.80;;;17.60;97.60;;;;;;5033690;28;20044;-83
2022/10/11 09:00:40;;;;;;;2.63;1.88;;;17.70;96.90;;;;;;5031616;28;20030;-84
2022/10/11 09:03:21;;;;;;;8.80;3.28;;;18.00;96.50;;;;;;5013291;28;20030;-84
2022/10/11 09:06:00;;;;;;;4.97;2.85;;;18.40;94.20;;;;;;5013536;28;20049;-84
2022/10/11 09:08:36;;;;;;;8.48;3.10;;;18.30;93.50;;;;;;5013956;28;20026;-84
2022/10/11 09:11:07;;;;;;;4.25;2.80;;;18.00;93.60;;;;;;4995669;28;20090;-83
2022/10/11 09:13:51;;;;;;;7.47;3.65;;;18.00;94.30;;;;;;5011859;28;20027;-83
2022/10/11 09:16:22;;;;;;;7.85;3.72;;;18.00;93.90;;;;;;5009854;28;20039;-83
2022/10/11 09:18:51;;;;;;;11.97;3.57;;;18.40;92.70;;;;;;5008154;28;20049;-84
2022/10/11 09:21:19;;;;;;;9.13;3.85;;;18.80;92.40;;;;;;4998907;28;20061;-84
2022/10/11 09:24:06;;;;;;;9.38;3.97;;;18.80;91.10;;;;;;4988372;28;20042;-83
2022/10/11 09:26:39;;;;;;;14.38;3.83;;;18.50;92.20;;;;;;4988899;28;20030;-84
2022/10/11 09:29:19;;;;;;;6.15;3.08;;;18.30;91.90;;;;;;5009893;28;20061;-84
2022/10/11 09:31:53;;;;;;;5.78;3.03;;;18.10;93.00;;;;;;5025903;28;20022;-84
2022/10/11 09:34:20;;;;;;;3.53;2.92;;;17.90;93.60;;;;;;5023497;28;20018;-84
2022/10/11 09:36:56;;;;;;;7.20;3.40;;;17.80;93.80;;;;;;5024594;28;20037;-84
2022/10/11 09:39:28;;;;;;;8.57;4.03;;;17.60;93.90;;;;;;5022415;28;20018;-84
2022/10/11 09:42:02;;;;;;;9.32;4.35;;;17.30;94.70;;;;;;5004092;28;20022;-84
2022/10/11 09:44:49;;;;;;;8.95;4.30;;;16.90;95.60;;;;;;5021225;28;20078;-84
2022/10/11 09:47:22;;;;;;;7.88;4.43;;;16.80;96.40;;;;;;5021599;28;20033;-84
2022/10/11 09:50:16;;;;;;;9.20;3.55;;;17.00;96.30;;;;;;5002946;28;20077;-83
2022/10/11 09:52:49;;;;;;;9.35;3.90;;;17.20;96.30;;;;;;5006382;28;20101;-83
2022/10/11 09:55:51;;;;;;;9.25;4.07;;;17.30;96.00;;;;;;5024707;28;20038;-84
2022/10/11 09:58:37;;;;;;;6.95;3.45;;;17.40;95.20;;;;;;5006512;28;20117;-84
2022/10/11 10:01:07;;;;;;;4.90;2.45;;;17.50;95.50;;;;;;5017804;28;20045;-84
2022/10/11 10:03:36;;;;;;;7.13;3.03;;;17.80;95.20;;;;;;4999063;28;20474;-83
2022/10/11 10:06:12;;;;;;;6.32;2.28;;;18.00;93.90;;;;;;5023033;28;20038;-84
2022/10/11 10:08:38;;;;;;;5.60;2.28;;;18.10;93.90;;;;;;5024488;28;20053;-83
2022/10/11 10:11:06;;;;;;;6.30;3.75;;;18.20;93.70;;;;;;5022608;28;20085;-84
2022/10/11 10:13:44;;;;;;;12.70;4.75;;;18.30;92.60;;;;;;5022915;28;20026;-83
2022/10/11 10:16:31;;;;;;;7.13;3.80;;;18.40;92.10;;;;;;5007557;28;20037;-83
2022/10/11 10:19:13;;;;;;;4.07;2.58;;;18.30;92.60;;;;;;5022363;28;20046;-84
2022/10/11 10:21:45;;;;;;;7.65;3.25;;;18.30;93.00;;;;;;5009109;28;20057;-84
2022/10/11 10:24:33;;;;;;;5.68;2.95;;;18.40;92.90;;;;;;5026466;28;20046;-84
2022/10/11 10:27:19;;;;;;;4.53;2.95;;;18.40;92.90;;;;;;5021317;28;20033;-84
2022/10/11 10:30:08;;;;;;;5.05;2.63;;;18.50;92.50;;;;;;5007566;28;20030;-83
2022/10/11 10:32:54;;;;;;;2.88;1.73;;;18.50;92.60;;;;;;5012957;28;20073;-83
2022/10/11 10:35:34;;;;;;;5.75;2.83;;;18.70;92.20;;;;;;5014959;28;20102;-83
2022/10/11 10:38:18;;;;;;;8.35;2.75;;;18.80;91.50;;;;;;5031456;28;20049;-85
2022/10/11 10:40:55;;;;;;;8.10;3.63;;;18.80;91.30;;;;;;5027829;28;20034;-84
2022/10/11 10:43:24;;;;;;;5.88;2.50;;;18.80;91.00;;;;;;5005627;28;20041;-84
2022/10/11 10:46:14;;;;;;;4.65;2.80;;;18.70;91.20;;;;;;5023585;28;20106;-83
2022/10/11 10:49:07;;;;;;;3.33;1.80;;;18.80;91.40;;;;;;5026420;28;20049;-83
2022/10/11 10:51:56;;;;;;;4.13;2.33;;;18.80;91.40;;;;;;5000118;28;20026;-84
2022/10/11 10:54:34;;;;;;;8.32;3.45;;;18.90;91.10;;;;;;4988535;28;20431;-84
2022/10/11 10:57:10;;;;;;;5.70;3.30;;;19.00;90.00;;;;;;4987682;28;20026;-84
2022/10/11 10:59:48;;;;;;;8.43;3.65;;;18.90;90.30;;;;;;4984344;28;20023;-84
2022/10/11 11:02:31;;;;;;;11.25;4.53;;;18.90;90.70;;;;;;4984695;28;20033;-84
2022/10/11 11:05:06;;;;;;;8.77;3.47;;;18.90;89.00;;;;;;4984974;28;20031;-83
2022/10/11 11:07:46;;;;;;;6.53;3.10;;;18.90;90.30;;;;;;4968122;28;20066;-83
2022/10/11 11:10:22;;;;;;;7.55;2.72;;;19.00;90.30;;;;;;4986417;28;20079;-84
2022/10/11 11:13:14;;;;;;;12.18;4.20;;;19.20;89.70;;;;;;4991825;28;20022;-84
2022/10/11 11:16:05;;;;;;;9.25;5.38;;;19.30;88.30;;;;;;5008359;28;20031;-83
2022/10/11 11:18:55;;;;;;;12.63;4.00;;;19.40;87.10;;;;;;5009615;28;20018;-83
2022/10/11 11:21:58;;;;;;;8.50;3.92;;;19.30;87.30;;;;;;5012188;28;20073;-83
2022/10/11 11:24:44;;;;;;;;;;;19.10;88.70;;;;;;5014673;28;20129;-83
2022/10/11 11:27:47;;;;;;;7.00;2.53;;;19.20;89.50;;;;;;5014046;28;19913;-83
2022/10/11 11:30:21;;;;;;;;;;;19.30;89.20;;;;;;4991193;28;20047;-83
2022/10/11 11:32:52;;;;;;;7.18;3.55;;;19.50;87.90;;;;;;4989945;28;19914;-84
2022/10/11 11:35:39;;;;;;;9.88;4.15;;;19.40;87.70;;;;;;5004185;28;20052;-83
2022/10/11 11:38:27;;;;;;;7.60;4.40;;;19.20;87.90;;;;;;5023663;28;20053;-84
2022/10/11 11:41:03;;;;;;;9.88;3.50;;;19.00;89.10;;;;;;5024103;28;20474;-84
2022/10/11 11:43:38;;;;;;;9.85;3.65;;;18.80;89.90;;;;;;5026657;28;20030;-83
2022/10/11 11:46:11;;;;;;;9.13;3.80;;;18.60;90.70;;;;;;4988729;28;20031;-83
2022/10/11 11:48:41;;;;;;;12.32;3.67;;;18.60;90.40;;;;;;4990199;28;20035;-84
2022/10/11 11:51:19;;;;;;;5.90;2.65;;;18.70;90.20;;;;;;5016241;28;20065;-84
2022/10/11 11:54:05;;;;;;;4.80;2.80;;;18.80;90.40;;;;;;5026994;28;20452;-84
2022/10/11 11:56:50;;;;;;;6.45;3.88;;;19.20;90.00;;;;;;4984939;28;20026;-83
2022/10/11 11:59:22;;;;;;;8.18;3.05;;;19.20;88.90;;;;;;4984275;28;20019;-83
2022/10/11 12:02:29;;;;;;;8.70;3.42;;;19.00;89.10;;;;;;4966982;28;20059;-84
2022/10/11 12:04:55;;;;;;;9.85;3.70;;;18.80;90.00;;;;;;4993937;28;20025;-84
2022/10/11 12:07:23;;;;;;;8.93;3.25;;;18.80;89.90;;;;;;5022726;28;20049;-84
2022/10/11 12:09:53;;;;;;;12.13;4.07;;;18.70;90.00;;;;;;5024193;28;20022;-83
2022/10/11 12:12:34;;;;;;;10.32;3.75;;;18.70;89.20;;;;;;5006285;28;20054;-83
2022/10/11 12:15:18;;;;;;;10.38;3.50;;;18.70;89.70;;;;;;5022891;28;20030;-84
2022/10/11 12:17:56;;;;;;;5.68;2.88;;;18.80;90.00;;;;;;5006692;28;20080;-84
2022/10/11 12:20:40;;;;;;;11.60;3.38;;;18.90;89.00;;;;;;5013131;28;20659;-83
2022/10/11 12:23:17;;;;;;;9.85;3.88;;;19.00;88.40;;;;;;5004651;28;20022;-83
2022/10/11 12:25:44;;;;;;;5.80;2.42;;;18.90;87.90;;;;;;5009160;28;20018;-83
2022/10/11 12:28:41;;;;;;;11.38;3.25;;;18.90;88.40;;;;;;5004703;28;20034;-84
2022/10/11 12:31:26;;;;;;;8.52;3.75;;;18.90;87.90;;;;;;5019475;28;20022;-84
2022/10/11 12:34:01;;;;;;;7.30;3.17;;;18.90;87.40;;;;;;5001931;28;20077;-84
2022/10/11 12:36:28;;;;;;;10.18;3.05;;;18.90;87.90;;;;;;5018147;28;20028;-83
2022/10/11 12:39:19;;;;;;;3.78;2.58;;;19.10;87.30;;;;;;4987978;28;20085;-83
2022/10/11 12:41:49;;;;;;;2.38;1.98;;;19.20;87.30;;;;;;5005163;28;20518;-83
2022/10/11 12:44:18;;;;;;;4.78;2.10;;;19.40;87.00;;;;;;5004787;28;20482;-83
2022/10/11 12:46:50;;;;;;;8.27;2.63;;;19.90;86.60;;;;;;4986394;28;20026;-84
2022/10/11 12:49:21;;;;;;;11.93;3.58;;;20.30;83.20;;;;;;4991355;28;20065;-83
2022/10/11 12:52:00;;;;;;;7.70;3.55;;;20.10;81.40;;;;;;5015117;28;20112;-83
2022/10/11 12:54:48;;;;;;;7.90;3.95;;;19.70;83.30;;;;;;5022486;28;20110;-83
2022/10/11 12:57:28;;;;;;;3.95;2.55;;;19.30;83.80;;;;;;4996631;28;20501;-84
2022/10/11 13:00:16;;;;;;;12.95;3.70;;;19.00;86.00;;;;;;4985618;28;20036;-84
2022/10/11 13:02:42;;;;;;;12.35;3.70;;;18.80;86.90;;;;;;5002672;28;20026;-82
2022/10/11 13:05:26;;;;;;;7.97;3.17;;;18.50;87.80;;;;;;4984748;28;20044;-85
2022/10/11 13:07:55;;;;;;;8.60;3.20;;;18.30;89.70;;;;;;5003254;28;20041;-84
2022/10/11 13:10:27;;;;;;;6.28;3.30;;;18.20;90.10;;;;;;5001192;28;20048;-84